Time;durP1;ratioP1;P1;durP2;ratioP2;P2;SDS_P1;SDS_P2;PMS_P1;PMS_P2;Temp;Humidity;BMP_temperature;BMP_pressure;BME280_temperature;BME280_humidity;BME280_pressure;Samples;Min_cycle;Max_cycle;Signal;HPM_P1;HPM_P2
2021/10/22 00:01:03;;;;;;;10.00;1.47;;;6.80;99.90;;;;;;5130700;27;20701;-78
2021/10/22 00:03:30;;;;;;;10.00;2.67;;;6.80;99.90;;;;;;5134363;27;20635;-78
2021/10/22 00:05:57;;;;;;;14.10;2.03;;;6.70;99.90;;;;;;5138659;27;20199;-75
2021/10/22 00:08:25;;;;;;;8.73;1.70;;;6.60;99.90;;;;;;5139149;27;20290;-76
2021/10/22 00:10:53;;;;;;;7.57;1.57;;;6.60;99.90;;;;;;5135958;27;20232;-77
2021/10/22 00:13:21;;;;;;;8.10;1.63;;;6.60;99.90;;;;;;5130234;27;20571;-77
2021/10/22 00:15:48;;;;;;;13.60;2.40;;;6.50;99.90;;;;;;5134644;27;20192;-76
2021/10/22 00:18:17;;;;;;;9.73;2.23;;;6.50;99.90;;;;;;5137458;27;20984;-77
2021/10/22 00:20:44;;;;;;;15.07;2.23;;;6.50;99.90;;;;;;5128364;27;20201;-77
2021/10/22 00:23:10;;;;;;;9.53;1.90;;;6.50;99.90;;;;;;5120415;27;20244;-77
2021/10/22 00:25:37;;;;;;;5.53;2.13;;;6.50;99.90;;;;;;5133931;27;20204;-76
2021/10/22 00:28:06;;;;;;;7.03;1.17;;;6.40;99.90;;;;;;5131216;27;20217;-76
2021/10/22 00:30:33;;;;;;;7.90;1.70;;;6.40;99.90;;;;;;5129188;27;20207;-77
2021/10/22 00:32:59;;;;;;;8.03;2.30;;;6.40;99.90;;;;;;5131601;27;20204;-76
2021/10/22 00:35:26;;;;;;;9.27;2.10;;;6.40;99.90;;;;;;5129742;27;20561;-75
2021/10/22 00:37:53;;;;;;;11.50;1.80;;;6.40;99.90;;;;;;5129284;27;20208;-77
2021/10/22 00:40:24;;;;;;;5.53;1.93;;;6.30;99.90;;;;;;5130182;27;20210;-77
2021/10/22 00:42:53;;;;;;;11.60;2.67;;;6.40;99.90;;;;;;5118968;27;20197;-76
2021/10/22 00:45:23;;;;;;;8.77;2.03;;;6.30;99.90;;;;;;5127652;27;20646;-77
2021/10/22 00:47:50;;;;;;;12.77;2.40;;;6.30;99.90;;;;;;5122578;27;21048;-77
2021/10/22 00:50:17;;;;;;;8.80;1.87;;;6.40;99.90;;;;;;5133690;27;20252;-78
2021/10/22 00:52:46;;;;;;;11.13;2.23;;;6.40;99.90;;;;;;5127692;27;20292;-76
2021/10/22 00:55:13;;;;;;;10.27;2.33;;;6.40;99.90;;;;;;5128392;27;20549;-78
2021/10/22 00:57:41;;;;;;;8.50;1.90;;;6.40;99.90;;;;;;5126044;27;20215;-78
2021/10/22 01:00:10;;;;;;;10.70;2.10;;;6.40;99.90;;;;;;5125748;27;20215;-76
2021/10/22 01:02:38;;;;;;;11.97;2.20;;;6.40;99.90;;;;;;5129444;27;20200;-77
2021/10/22 01:05:09;;;;;;;6.33;1.73;;;6.40;99.90;;;;;;5140628;27;20845;-77
2021/10/22 01:07:39;;;;;;;7.87;2.10;;;6.40;99.90;;;;;;5122857;27;20193;-77
2021/10/22 01:10:07;;;;;;;12.57;2.47;;;6.40;99.90;;;;;;5138235;27;20257;-77
2021/10/22 01:12:36;;;;;;;17.50;2.47;;;6.40;99.90;;;;;;5123830;27;20196;-76
2021/10/22 01:15:04;;;;;;;9.03;2.70;;;6.40;99.90;;;;;;5128440;27;20707;-76
2021/10/22 01:17:32;;;;;;;9.37;2.17;;;6.40;99.90;;;;;;5119595;27;20547;-74
2021/10/22 01:20:00;;;;;;;15.73;2.20;;;6.40;99.90;;;;;;5130657;27;20192;-80
2021/10/22 01:22:29;;;;;;;11.63;2.40;;;6.40;99.90;;;;;;5130417;27;20200;-78
2021/10/22 01:24:56;;;;;;;11.87;2.00;;;6.40;99.90;;;;;;5139884;27;20199;-79
2021/10/22 01:27:24;;;;;;;9.27;1.70;;;6.40;99.90;;;;;;5134600;27;20200;-80
2021/10/22 01:29:51;;;;;;;7.63;1.87;;;6.50;99.90;;;;;;5124829;27;20699;-81
2021/10/22 01:32:18;;;;;;;12.63;2.23;;;6.50;99.90;;;;;;5129959;27;20200;-82
2021/10/22 01:34:45;;;;;;;10.83;3.00;;;6.50;99.90;;;;;;5139534;27;20222;-78
2021/10/22 01:37:12;;;;;;;8.97;2.00;;;6.50;99.90;;;;;;5125938;27;20266;-77
2021/10/22 01:39:40;;;;;;;6.90;2.00;;;6.60;99.90;;;;;;5118499;27;20197;-79
2021/10/22 01:42:07;;;;;;;11.03;2.50;;;6.50;99.90;;;;;;5118808;27;20196;-78
2021/10/22 01:44:34;;;;;;;16.37;3.40;;;6.50;99.90;;;;;;5117425;27;20569;-78
2021/10/22 01:47:01;;;;;;;8.53;2.00;;;6.50;99.90;;;;;;5122302;27;20211;-77
2021/10/22 01:49:27;;;;;;;12.93;2.27;;;6.40;99.90;;;;;;5114886;27;20543;-77
2021/10/22 01:51:55;;;;;;;14.70;2.73;;;6.40;99.90;;;;;;5132721;27;20196;-74
2021/10/22 01:54:22;;;;;;;8.63;2.37;;;6.40;99.90;;;;;;5119024;28;20212;-77
2021/10/22 01:56:50;;;;;;;9.20;2.37;;;6.40;99.90;;;;;;5122766;27;20200;-76
2021/10/22 01:59:17;;;;;;;9.67;2.30;;;6.30;99.90;;;;;;5118811;28;20650;-75
2021/10/22 02:01:44;;;;;;;8.47;2.20;;;6.40;99.90;;;;;;5131977;27;20201;-75
2021/10/22 02:04:11;;;;;;;8.97;2.60;;;6.40;99.90;;;;;;5125568;27;20211;-76
2021/10/22 02:06:38;;;;;;;10.07;2.40;;;6.30;99.90;;;;;;5136029;27;20196;-76
2021/10/22 02:09:05;;;;;;;12.37;2.50;;;6.30;99.90;;;;;;5137450;27;20195;-76
2021/10/22 02:11:32;;;;;;;11.93;2.40;;;6.40;99.90;;;;;;5129706;27;20207;-76
2021/10/22 02:14:00;;;;;;;9.93;2.10;;;6.40;99.90;;;;;;5136603;27;20196;-76
2021/10/22 02:16:27;;;;;;;12.53;2.17;;;6.40;99.90;;;;;;5116077;27;20678;-75
2021/10/22 02:18:54;;;;;;;10.23;2.27;;;6.40;99.90;;;;;;5115040;28;20242;-75
2021/10/22 02:21:21;;;;;;;9.23;2.20;;;6.40;99.90;;;;;;5129160;27;20275;-76
2021/10/22 02:23:48;;;;;;;7.57;2.70;;;6.30;99.90;;;;;;5136523;27;20234;-75
2021/10/22 02:26:15;;;;;;;7.37;2.30;;;6.30;99.90;;;;;;5132181;27;20209;-75
2021/10/22 02:28:42;;;;;;;8.57;2.10;;;6.30;99.90;;;;;;5130173;27;20197;-75
2021/10/22 02:31:10;;;;;;;10.30;2.20;;;6.30;99.90;;;;;;5139736;27;20195;-75
2021/10/22 02:33:37;;;;;;;13.00;2.63;;;6.30;99.90;;;;;;5146351;27;20373;-75
2021/10/22 02:36:05;;;;;;;9.53;2.40;;;6.30;99.90;;;;;;5146205;27;20203;-75
2021/10/22 02:38:32;;;;;;;8.13;3.03;;;6.30;99.90;;;;;;5142066;27;20697;-75
2021/10/22 02:40:59;;;;;;;11.33;3.07;;;6.30;99.90;;;;;;5130580;27;20207;-75
2021/10/22 02:43:26;;;;;;;15.20;3.50;;;6.30;99.90;;;;;;5136177;27;20206;-75
2021/10/22 02:45:53;;;;;;;11.73;3.23;;;6.30;99.90;;;;;;5127093;27;20201;-75
2021/10/22 02:48:21;;;;;;;9.43;3.10;;;6.30;99.90;;;;;;5135629;27;20196;-75
2021/10/22 02:50:48;;;;;;;9.33;2.83;;;6.30;99.90;;;;;;5137567;27;20191;-75
2021/10/22 02:53:15;;;;;;;10.90;2.93;;;6.30;99.90;;;;;;5140280;27;20649;-76
2021/10/22 02:55:42;;;;;;;10.93;3.20;;;6.30;99.90;;;;;;5132390;27;20201;-76
2021/10/22 02:58:09;;;;;;;11.50;3.03;;;6.30;99.90;;;;;;5139271;27;20212;-76
2021/10/22 03:00:36;;;;;;;10.13;3.33;;;6.30;99.90;;;;;;5133558;27;20607;-76
2021/10/22 03:03:03;;;;;;;12.03;3.90;;;6.30;99.90;;;;;;5133456;27;20635;-76
2021/10/22 03:05:32;;;;;;;12.13;4.30;;;6.20;99.90;;;;;;5136338;27;20661;-75
2021/10/22 03:07:59;;;;;;;10.07;4.10;;;6.30;99.90;;;;;;5139626;27;20230;-75
2021/10/22 03:10:27;;;;;;;14.00;4.20;;;6.30;99.90;;;;;;5140792;27;20655;-75
2021/10/22 03:12:54;;;;;;;12.43;4.10;;;6.40;99.90;;;;;;5134037;27;20196;-75
2021/10/22 03:15:21;;;;;;;12.33;4.17;;;6.30;99.90;;;;;;5137095;27;20212;-75
2021/10/22 03:17:49;;;;;;;11.30;3.90;;;6.30;99.90;;;;;;5130317;27;20244;-75
2021/10/22 03:20:16;;;;;;;17.90;5.43;;;6.30;99.90;;;;;;5131678;27;20378;-76
2021/10/22 03:22:44;;;;;;;18.77;5.13;;;6.30;99.90;;;;;;5123382;27;20205;-76
2021/10/22 03:25:11;;;;;;;11.00;4.60;;;6.40;99.90;;;;;;5133709;27;20203;-76
2021/10/22 03:27:38;;;;;;;10.80;4.40;;;6.40;99.90;;;;;;5143012;27;20204;-76
2021/10/22 03:30:05;;;;;;;12.17;4.80;;;6.40;99.90;;;;;;5142455;27;20423;-76
2021/10/22 03:32:33;;;;;;;15.33;5.73;;;6.40;99.90;;;;;;5134561;27;20232;-76
2021/10/22 03:35:00;;;;;;;14.03;4.73;;;6.50;99.90;;;;;;5127595;27;20257;-75
2021/10/22 03:37:27;;;;;;;11.17;5.00;;;6.50;99.90;;;;;;5128378;27;20207;-75
2021/10/22 03:39:55;;;;;;;13.77;5.03;;;6.50;99.90;;;;;;5140069;27;20220;-76
2021/10/22 03:42:23;;;;;;;13.10;4.60;;;6.50;99.90;;;;;;5132693;27;20211;-75
2021/10/22 03:44:50;;;;;;;19.03;5.63;;;6.40;99.90;;;;;;5133383;27;20207;-75
2021/10/22 03:47:17;;;;;;;8.17;4.43;;;6.40;99.90;;;;;;5133224;27;20208;-75
2021/10/22 03:49:45;;;;;;;19.93;5.27;;;6.40;99.90;;;;;;5114784;27;20193;-74
2021/10/22 03:52:12;;;;;;;16.47;5.60;;;6.50;99.90;;;;;;5117551;27;20218;-75
2021/10/22 03:54:39;;;;;;;13.67;5.10;;;6.50;99.90;;;;;;5133990;27;20193;-74
2021/10/22 03:57:07;;;;;;;9.80;3.70;;;6.50;99.90;;;;;;5134578;27;20210;-74
2021/10/22 03:59:34;;;;;;;10.63;4.30;;;6.50;99.90;;;;;;5136419;27;20219;-74
2021/10/22 04:02:01;;;;;;;14.70;3.80;;;6.50;99.90;;;;;;5128992;27;20193;-74
2021/10/22 04:04:29;;;;;;;11.50;3.57;;;6.60;99.90;;;;;;5138285;27;20286;-74
2021/10/22 04:06:57;;;;;;;12.13;4.20;;;6.70;99.90;;;;;;5141791;27;20196;-74
2021/10/22 04:09:26;;;;;;;9.13;3.73;;;6.60;99.90;;;;;;5139825;27;20259;-74
2021/10/22 04:11:53;;;;;;;13.03;4.00;;;6.70;99.90;;;;;;5140289;27;20195;-74
2021/10/22 04:14:22;;;;;;;12.43;4.50;;;6.80;99.90;;;;;;5140458;27;20200;-74
2021/10/22 04:16:49;;;;;;;11.00;5.30;;;6.70;99.90;;;;;;5143771;27;20567;-74
2021/10/22 04:19:15;;;;;;;12.43;5.23;;;6.70;99.90;;;;;;5118337;27;20219;-74
2021/10/22 04:21:42;;;;;;;12.87;4.30;;;6.80;99.90;;;;;;5114152;27;20209;-74
2021/10/22 04:24:09;;;;;;;13.13;4.50;;;6.80;99.90;;;;;;5131566;27;20204;-74
2021/10/22 04:26:36;;;;;;;14.07;5.13;;;6.70;99.90;;;;;;5137711;27;20588;-74
2021/10/22 04:29:03;;;;;;;15.30;4.90;;;6.70;99.90;;;;;;5131883;27;20195;-74
2021/10/22 04:31:31;;;;;;;10.07;4.30;;;6.80;99.90;;;;;;5128742;27;20196;-74
2021/10/22 04:33:58;;;;;;;13.73;5.23;;;6.80;99.90;;;;;;5123624;27;20204;-75
2021/10/22 04:36:25;;;;;;;12.73;4.57;;;6.80;99.90;;;;;;5129512;27;20221;-75
2021/10/22 04:41:36;;;;;;;9.03;4.40;;;6.80;99.90;;;;;;5114034;27;20204;-75
2021/10/22 04:44:04;;;;;;;14.17;4.33;;;6.80;99.90;;;;;;5131056;27;20202;-75
2021/10/22 04:46:32;;;;;;;11.70;4.67;;;6.80;99.90;;;;;;5136669;27;20204;-74
2021/10/22 04:48:59;;;;;;;16.93;5.73;;;6.90;99.90;;;;;;5119023;27;20189;-75
2021/10/22 04:51:26;;;;;;;9.57;3.83;;;6.90;99.90;;;;;;5144550;27;20197;-74
2021/10/22 04:53:53;;;;;;;13.50;3.83;;;6.80;99.90;;;;;;5143468;27;20731;-78
2021/10/22 04:56:20;;;;;;;11.33;3.53;;;6.90;99.90;;;;;;5130461;27;20493;-78
2021/10/22 04:58:47;;;;;;;14.10;4.67;;;6.90;99.90;;;;;;5147991;27;20212;-78
2021/10/22 05:01:14;;;;;;;10.70;3.33;;;7.00;99.90;;;;;;5143085;27;20215;-78
2021/10/22 05:03:42;;;;;;;10.93;3.10;;;6.90;99.90;;;;;;5150282;27;20672;-78
2021/10/22 05:06:10;;;;;;;14.43;3.23;;;7.00;99.90;;;;;;5133406;27;20265;-78
2021/10/22 05:08:37;;;;;;;13.27;3.00;;;7.00;99.90;;;;;;5128053;27;20203;-78
2021/10/22 05:11:04;;;;;;;10.93;2.87;;;7.00;99.90;;;;;;5113678;27;20216;-78
2021/10/22 05:13:31;;;;;;;11.00;2.70;;;7.10;99.90;;;;;;5130558;27;20200;-78
2021/10/22 05:15:59;;;;;;;13.27;2.50;;;7.00;99.90;;;;;;5115060;27;20205;-80
2021/10/22 05:18:28;;;;;;;7.83;2.27;;;7.00;99.90;;;;;;5122795;27;20696;-80
2021/10/22 05:20:56;;;;;;;10.57;2.40;;;7.00;99.90;;;;;;5136718;27;20653;-80
2021/10/22 05:23:23;;;;;;;4.37;2.27;;;7.00;99.90;;;;;;5133429;27;20669;-77
2021/10/22 05:25:49;;;;;;;10.53;2.57;;;7.20;99.90;;;;;;5123315;27;20288;-76
2021/10/22 05:28:16;;;;;;;11.00;2.67;;;7.20;99.90;;;;;;5145521;27;20211;-79
2021/10/22 05:30:43;;;;;;;13.30;2.30;;;7.20;99.90;;;;;;5137304;27;20204;-76
2021/10/22 05:33:11;;;;;;;11.50;2.43;;;7.30;99.90;;;;;;5146022;27;20199;-77
2021/10/22 05:35:38;;;;;;;14.07;2.23;;;7.20;99.90;;;;;;5123748;27;20200;-77
2021/10/22 05:38:07;;;;;;;6.23;1.77;;;7.10;99.90;;;;;;5131513;27;20228;-78
2021/10/22 05:40:35;;;;;;;7.13;2.00;;;7.10;99.90;;;;;;5130519;27;20219;-78
2021/10/22 05:43:02;;;;;;;13.33;2.23;;;7.10;99.90;;;;;;5141503;27;20272;-80
2021/10/22 05:45:29;;;;;;;12.20;2.40;;;7.10;99.90;;;;;;5147060;27;20567;-79
2021/10/22 05:47:56;;;;;;;8.80;2.00;;;7.20;99.90;;;;;;5142678;27;20203;-79
2021/10/22 05:50:23;;;;;;;7.53;2.00;;;7.10;99.90;;;;;;5137901;27;20650;-79
2021/10/22 05:52:50;;;;;;;9.23;2.20;;;7.30;99.90;;;;;;5136631;27;20193;-79
2021/10/22 05:55:18;;;;;;;6.13;2.07;;;7.30;99.90;;;;;;5142414;27;20207;-80
2021/10/22 05:57:45;;;;;;;9.37;2.23;;;7.20;99.90;;;;;;5124164;27;20204;-81
2021/10/22 06:00:13;;;;;;;7.57;2.00;;;7.20;99.90;;;;;;5123315;27;20235;-80
2021/10/22 06:02:41;;;;;;;11.17;3.13;;;7.10;99.90;;;;;;5127578;27;20212;-80
2021/10/22 06:05:09;;;;;;;13.57;2.53;;;7.30;99.90;;;;;;5137883;27;20289;-80
2021/10/22 06:07:37;;;;;;;9.47;2.37;;;7.30;99.90;;;;;;5139338;27;20203;-79
2021/10/22 06:10:04;;;;;;;8.30;1.77;;;7.40;99.90;;;;;;5140954;27;20196;-79
2021/10/22 06:12:32;;;;;;;4.53;1.73;;;7.40;99.90;;;;;;5134761;27;20204;-79
2021/10/22 06:15:00;;;;;;;4.97;1.43;;;7.40;99.90;;;;;;5129682;27;20208;-79
2021/10/22 06:17:27;;;;;;;9.73;2.13;;;7.50;99.90;;;;;;5120811;27;20249;-79
2021/10/22 06:19:57;;;;;;;6.57;2.20;;;7.50;99.90;;;;;;5136580;27;20226;-79
2021/10/22 06:22:38;;;;;;;7.93;1.63;;;7.40;99.90;;;;;;5136962;27;20210;-80
2021/10/22 06:25:06;;;;;;;9.93;2.43;;;7.50;99.90;;;;;;5136339;27;20295;-80
2021/10/22 06:27:34;;;;;;;8.43;1.90;;;7.50;99.90;;;;;;5137958;27;20201;-80
2021/10/22 06:30:01;;;;;;;7.70;2.30;;;7.50;99.90;;;;;;5130554;27;20202;-80
2021/10/22 06:32:28;;;;;;;8.50;2.20;;;7.50;99.90;;;;;;5132085;27;20245;-80
2021/10/22 06:34:55;;;;;;;13.03;2.63;;;7.50;99.90;;;;;;5135246;27;20645;-80
2021/10/22 06:37:22;;;;;;;9.93;2.10;;;7.60;99.90;;;;;;5136987;27;20200;-79
2021/10/22 06:39:49;;;;;;;10.03;2.30;;;7.70;99.90;;;;;;5133795;27;20221;-79
2021/10/22 06:42:16;;;;;;;10.70;2.80;;;7.80;99.90;;;;;;5123507;27;20212;-79
2021/10/22 06:44:44;;;;;;;7.77;2.77;;;7.80;99.90;;;;;;5126349;27;20193;-79
2021/10/22 06:47:11;;;;;;;11.20;3.10;;;7.80;99.90;;;;;;5123682;27;20201;-80
2021/10/22 06:49:38;;;;;;;11.53;3.73;;;7.80;99.90;;;;;;5117439;27;20203;-80
2021/10/22 06:52:06;;;;;;;8.77;2.60;;;7.90;99.90;;;;;;5126471;27;20676;-80
2021/10/22 06:54:33;;;;;;;7.00;2.87;;;8.00;99.90;;;;;;5129100;27;20598;-80
2021/10/22 06:57:00;;;;;;;12.17;2.53;;;8.20;99.90;;;;;;5127252;27;20688;-80
2021/10/22 06:59:26;;;;;;;12.30;2.40;;;8.20;99.90;;;;;;5123824;27;20227;-80
2021/10/22 07:01:55;;;;;;;11.03;2.83;;;8.20;99.90;;;;;;5126796;27;21524;-80
2021/10/22 07:04:22;;;;;;;8.27;2.40;;;8.20;99.90;;;;;;5122623;27;20209;-80
2021/10/22 07:09:33;;;;;;;13.37;3.03;;;8.40;99.90;;;;;;5115034;27;20198;-80
2021/10/22 07:12:02;;;;;;;6.50;1.80;;;8.40;99.90;;;;;;5116925;27;20200;-79
2021/10/22 07:14:32;;;;;;;8.80;1.70;;;8.50;99.90;;;;;;5118936;27;20242;-79
2021/10/22 07:17:00;;;;;;;10.80;1.57;;;8.60;99.90;;;;;;5113034;27;20205;-80
2021/10/22 07:19:27;;;;;;;9.03;1.83;;;8.60;99.90;;;;;;5121568;27;20221;-81
2021/10/22 07:21:59;;;;;;;7.83;1.50;;;8.70;99.90;;;;;;5121766;27;20237;-80
2021/10/22 07:24:25;;;;;;;8.23;1.70;;;8.70;99.90;;;;;;5123244;27;20653;-80
2021/10/22 07:26:52;;;;;;;9.80;2.23;;;8.70;99.90;;;;;;5115771;27;20207;-79
2021/10/22 07:29:19;;;;;;;9.43;2.33;;;8.60;99.90;;;;;;5112141;27;20865;-80
2021/10/22 07:31:46;;;;;;;9.37;2.10;;;8.60;99.90;;;;;;5112550;27;20674;-79
2021/10/22 07:34:17;;;;;;;4.60;1.70;;;8.60;99.90;;;;;;5110120;27;20573;-79
2021/10/22 07:36:46;;;;;;;8.03;2.30;;;8.60;99.90;;;;;;5121190;27;20701;-80
2021/10/22 07:39:13;;;;;;;9.83;2.57;;;8.60;99.90;;;;;;5113244;27;20307;-80
2021/10/22 07:41:39;;;;;;;9.23;2.10;;;8.60;99.90;;;;;;5110292;27;20663;-80
2021/10/22 07:44:06;;;;;;;9.90;2.60;;;8.60;99.90;;;;;;5114363;27;20647;-80
2021/10/22 07:46:33;;;;;;;10.20;2.27;;;8.60;99.90;;;;;;5119231;27;20304;-80
2021/10/22 07:49:00;;;;;;;12.10;2.50;;;8.60;99.90;;;;;;5112686;27;20208;-79
2021/10/22 07:51:28;;;;;;;10.37;2.43;;;8.60;99.90;;;;;;5122551;27;20238;-80
2021/10/22 07:53:55;;;;;;;5.17;1.90;;;8.60;99.90;;;;;;5121153;27;20208;-80
2021/10/22 07:56:22;;;;;;;13.07;2.97;;;8.60;99.90;;;;;;5114231;27;20209;-79
2021/10/22 07:58:51;;;;;;;8.37;2.40;;;8.60;99.90;;;;;;5118455;27;20215;-79
2021/10/22 08:01:18;;;;;;;6.00;2.47;;;8.70;99.90;;;;;;5078193;27;1128874;-79
2021/10/22 08:03:45;;;;;;;8.50;2.33;;;8.70;99.90;;;;;;5122045;27;20567;-79
2021/10/22 08:06:14;;;;;;;14.23;2.50;;;8.80;99.90;;;;;;5118729;27;20208;-79
2021/10/22 08:08:42;;;;;;;11.00;2.37;;;8.80;99.90;;;;;;5118604;27;20266;-80
2021/10/22 08:11:09;;;;;;;10.50;1.90;;;9.00;99.90;;;;;;5116987;27;20637;-79
2021/10/22 08:13:36;;;;;;;6.83;2.53;;;8.80;99.90;;;;;;5123174;27;20201;-79
2021/10/22 08:16:04;;;;;;;8.07;2.27;;;9.00;99.90;;;;;;5111802;27;20201;-80
2021/10/22 08:18:31;;;;;;;9.87;2.37;;;9.00;99.90;;;;;;5118210;27;20208;-79
2021/10/22 08:21:01;;;;;;;9.53;2.20;;;8.90;99.90;;;;;;5119906;27;20216;-79
2021/10/22 08:23:28;;;;;;;8.57;2.10;;;9.00;99.90;;;;;;5121995;27;20276;-80
2021/10/22 08:25:56;;;;;;;5.90;1.93;;;9.10;99.90;;;;;;5116525;27;20204;-79
2021/10/22 08:28:23;;;;;;;7.37;1.93;;;9.00;99.90;;;;;;5117292;27;20215;-80
2021/10/22 08:30:56;;;;;;;6.87;2.60;;;9.20;99.90;;;;;;5116671;27;20254;-79
2021/10/22 08:33:23;;;;;;;10.20;2.37;;;9.20;99.90;;;;;;5114917;27;20212;-80
2021/10/22 08:35:50;;;;;;;9.97;2.50;;;9.10;99.90;;;;;;5117143;27;20212;-80
2021/10/22 08:38:17;;;;;;;13.53;2.77;;;9.20;99.90;;;;;;5113440;27;20208;-79
2021/10/22 08:40:44;;;;;;;13.10;3.60;;;9.40;99.90;;;;;;5108503;27;20517;-80
2021/10/22 08:43:12;;;;;;;8.57;2.40;;;9.70;99.90;;;;;;5119215;27;20208;-80
2021/10/22 08:45:40;;;;;;;6.83;2.67;;;9.90;99.90;;;;;;5115912;27;20222;-80
2021/10/22 08:48:09;;;;;;;11.97;3.13;;;9.70;99.90;;;;;;5113552;27;20679;-80
2021/10/22 08:50:37;;;;;;;10.07;2.80;;;9.60;99.90;;;;;;5116685;27;20651;-80
2021/10/22 08:53:05;;;;;;;8.83;2.87;;;9.60;99.90;;;;;;5119438;27;20197;-79
2021/10/22 08:55:32;;;;;;;9.13;2.63;;;9.60;99.90;;;;;;5116385;27;20678;-79
2021/10/22 08:58:00;;;;;;;7.00;1.97;;;9.50;99.90;;;;;;5116686;27;20206;-80
2021/10/22 09:00:29;;;;;;;10.27;2.50;;;9.50;99.90;;;;;;5116233;27;20305;-80
2021/10/22 09:03:08;;;;;;;9.03;2.33;;;9.40;99.90;;;;;;5116823;27;20201;-80
2021/10/22 09:05:36;;;;;;;7.63;2.43;;;9.60;99.90;;;;;;5114445;27;20213;-80
2021/10/22 09:08:05;;;;;;;7.33;2.23;;;9.50;99.90;;;;;;5120771;27;20211;-80
2021/10/22 09:10:35;;;;;;;11.03;3.23;;;9.60;99.90;;;;;;5114309;27;20209;-79
2021/10/22 09:13:04;;;;;;;8.33;2.40;;;9.60;99.90;;;;;;5113609;27;20232;-80
2021/10/22 09:15:36;;;;;;;8.80;2.20;;;9.80;99.90;;;;;;5120867;27;20574;-80
2021/10/22 09:18:07;;;;;;;8.97;2.50;;;9.90;99.90;;;;;;5108654;27;20208;-77
2021/10/22 09:20:47;;;;;;;7.37;2.57;;;9.90;99.90;;;;;;5114988;27;20220;-79
2021/10/22 09:23:25;;;;;;;9.60;2.50;;;10.00;99.90;;;;;;5117455;27;20235;-79
2021/10/22 09:25:53;;;;;;;5.67;2.17;;;10.10;99.90;;;;;;5114831;27;20197;-79
2021/10/22 09:28:27;;;;;;;9.73;2.50;;;10.20;99.90;;;;;;5111396;27;20431;-79
2021/10/22 09:30:55;;;;;;;5.93;2.33;;;10.50;99.90;;;;;;5108945;27;20193;-79
2021/10/22 09:33:24;;;;;;;8.37;2.60;;;10.70;99.90;;;;;;5116470;27;20204;-79
2021/10/22 09:35:53;;;;;;;10.90;3.50;;;10.70;99.90;;;;;;5113729;27;20197;-79
2021/10/22 09:38:23;;;;;;;7.00;2.30;;;10.50;99.90;;;;;;5114637;27;20212;-79
2021/10/22 09:40:53;;;;;;;9.23;2.50;;;10.60;99.90;;;;;;5115632;27;20220;-79
2021/10/22 09:43:26;;;;;;;6.77;2.20;;;10.60;99.90;;;;;;5110753;27;20223;-79
2021/10/22 09:46:09;;;;;;;8.63;2.10;;;10.40;99.90;;;;;;5113859;27;20204;-79
2021/10/22 09:48:37;;;;;;;11.97;2.67;;;10.30;99.90;;;;;;5109203;27;20216;-79
2021/10/22 09:51:28;;;;;;;10.33;2.27;;;10.40;99.90;;;;;;5114209;27;20219;-79
2021/10/22 09:53:57;;;;;;;12.07;2.50;;;10.60;99.90;;;;;;5112812;27;20664;-79
2021/10/22 09:56:26;;;;;;;6.40;2.20;;;10.80;99.90;;;;;;5112837;27;20215;-80
2021/10/22 09:59:03;;;;;;;7.20;2.50;;;10.70;99.90;;;;;;5111766;27;20205;-79
2021/10/22 10:01:39;;;;;;;8.10;2.13;;;10.70;99.90;;;;;;5122227;27;20227;-78
2021/10/22 10:04:07;;;;;;;8.70;2.40;;;10.70;99.90;;;;;;5114814;27;20208;-79
2021/10/22 10:06:35;;;;;;;9.63;2.20;;;10.60;99.90;;;;;;5120141;27;20212;-79
2021/10/22 10:09:03;;;;;;;5.83;1.93;;;10.80;99.90;;;;;;5111696;27;20208;-80
2021/10/22 10:11:31;;;;;;;4.47;1.97;;;10.80;99.90;;;;;;5117681;27;20204;-80
2021/10/22 10:14:00;;;;;;;7.27;2.00;;;10.80;99.90;;;;;;5117066;27;20208;-78
2021/10/22 10:16:28;;;;;;;6.10;1.87;;;10.80;99.90;;;;;;5116074;27;20288;-79
2021/10/22 10:19:02;;;;;;;5.47;1.90;;;10.80;99.90;;;;;;5125310;27;20205;-79
2021/10/22 10:21:33;;;;;;;8.00;2.13;;;10.90;99.90;;;;;;5118304;27;20252;-79
2021/10/22 10:24:01;;;;;;;7.43;2.40;;;11.00;99.90;;;;;;5114933;27;20569;-79
2021/10/22 10:26:31;;;;;;;7.70;2.27;;;11.00;99.90;;;;;;5110267;27;20304;-79
2021/10/22 10:29:01;;;;;;;6.23;2.70;;;10.90;99.90;;;;;;5112215;27;20544;-79
2021/10/22 10:31:31;;;;;;;7.67;2.07;;;11.00;99.90;;;;;;5109294;27;20651;-78
2021/10/22 10:34:00;;;;;;;6.80;2.50;;;11.00;99.90;;;;;;5113050;27;20596;-80
2021/10/22 10:36:52;;;;;;;5.90;2.40;;;10.90;99.90;;;;;;5107989;27;20599;-78
2021/10/22 10:39:53;;;;;;;6.63;2.83;;;11.00;99.90;;;;;;5096870;27;20205;-79
2021/10/22 10:42:23;;;;;;;9.70;2.90;;;11.00;99.90;;;;;;5115045;27;20689;-78
2021/10/22 10:44:50;;;;;;;9.07;2.40;;;10.90;99.90;;;;;;5111413;27;20201;-79
2021/10/22 10:47:45;;;;;;;7.60;2.77;;;11.00;99.90;;;;;;5112238;27;20727;-80
2021/10/22 10:50:15;;;;;;;6.60;2.27;;;11.00;99.90;;;;;;5108010;27;20538;-82
2021/10/22 10:52:57;;;;;;;6.53;2.13;;;11.10;99.90;;;;;;5116067;27;20212;-72
2021/10/22 10:55:29;;;;;;;4.43;2.00;;;11.20;99.90;;;;;;5114532;27;20209;-72
2021/10/22 10:57:59;;;;;;;13.73;5.57;;;11.30;99.90;;;;;;5118581;27;20200;-72
2021/10/22 11:00:30;;;;;;;6.77;2.50;;;11.20;99.90;;;;;;5118990;27;20229;-72
2021/10/22 11:03:08;;;;;;;5.37;2.20;;;11.20;99.90;;;;;;5115704;27;20197;-72
2021/10/22 11:06:13;;;;;;;7.87;2.50;;;11.10;99.90;;;;;;5118416;27;20212;-69
2021/10/22 11:08:51;;;;;;;6.67;2.27;;;11.10;99.90;;;;;;5115996;27;20208;-70
2021/10/22 11:11:33;;;;;;;6.30;2.17;;;11.00;99.90;;;;;;5114108;27;20206;-71
2021/10/22 11:14:20;;;;;;;8.57;2.97;;;11.10;99.90;;;;;;5112180;27;20217;-71
2021/10/22 11:16:58;;;;;;;7.77;2.67;;;11.10;99.90;;;;;;5114595;27;20239;-69
2021/10/22 11:19:28;;;;;;;7.47;2.80;;;11.00;99.90;;;;;;5115218;27;20233;-69
2021/10/22 11:21:57;;;;;;;6.97;2.20;;;11.00;99.90;;;;;;5112510;27;20316;-69
2021/10/22 11:24:26;;;;;;;8.17;2.13;;;11.00;99.90;;;;;;5118639;27;20248;-69
2021/10/22 11:27:02;;;;;;;8.80;2.30;;;10.90;99.90;;;;;;5120064;27;20204;-69
2021/10/22 11:29:30;;;;;;;6.77;2.43;;;10.90;99.90;;;;;;5113510;27;20204;-69
2021/10/22 11:32:00;;;;;;;8.53;2.53;;;10.90;99.90;;;;;;5123606;27;20205;-69
2021/10/22 11:34:29;;;;;;;6.70;2.03;;;10.90;99.90;;;;;;5119088;27;20207;-71
2021/10/22 11:37:01;;;;;;;11.73;2.53;;;10.90;99.90;;;;;;5120215;27;20651;-69
2021/10/22 11:39:33;;;;;;;6.83;2.33;;;10.80;99.90;;;;;;5116707;27;20208;-69
2021/10/22 11:42:19;;;;;;;12.60;2.53;;;10.70;99.90;;;;;;5120532;27;20693;-68
2021/10/22 11:44:49;;;;;;;10.13;2.77;;;10.70;99.90;;;;;;5119706;27;20240;-69
2021/10/22 11:47:16;;;;;;;8.47;2.33;;;10.60;99.90;;;;;;5119242;27;20196;-69
2021/10/22 11:49:43;;;;;;;6.87;2.70;;;10.50;99.90;;;;;;5118829;27;20230;-69
2021/10/22 11:52:14;;;;;;;6.50;2.70;;;10.50;99.90;;;;;;5118409;27;20287;-69
2021/10/22 11:54:44;;;;;;;8.93;2.33;;;10.50;99.90;;;;;;5118757;27;20651;-69
2021/10/22 11:57:13;;;;;;;4.23;2.00;;;10.50;99.90;;;;;;5116430;27;20451;-69
2021/10/22 11:59:50;;;;;;;8.77;2.60;;;10.50;99.90;;;;;;5115278;27;20224;-69
2021/10/22 12:02:19;;;;;;;9.50;2.17;;;10.40;99.90;;;;;;5123495;27;20227;-69
2021/10/22 12:04:47;;;;;;;7.80;2.50;;;10.40;99.90;;;;;;5113523;27;20295;-69
2021/10/22 12:07:14;;;;;;;11.00;2.67;;;10.40;99.90;;;;;;5114258;27;20205;-69
2021/10/22 12:09:43;;;;;;;8.50;2.17;;;10.40;99.90;;;;;;5120872;27;20205;-69
2021/10/22 12:12:14;;;;;;;7.60;2.30;;;10.50;99.90;;;;;;5116756;27;20300;-69
2021/10/22 12:14:44;;;;;;;7.53;2.33;;;10.60;99.90;;;;;;5117926;27;20201;-69
2021/10/22 12:17:14;;;;;;;9.13;2.50;;;10.60;99.90;;;;;;5114474;27;20204;-69
2021/10/22 12:19:44;;;;;;;9.10;2.53;;;10.60;99.90;;;;;;5113195;27;20201;-68
2021/10/22 12:22:12;;;;;;;5.37;2.17;;;10.60;99.90;;;;;;5121820;27;20220;-69
2021/10/22 12:24:40;;;;;;;7.00;2.27;;;10.70;99.90;;;;;;5114921;27;20205;-69
2021/10/22 12:27:10;;;;;;;6.60;2.50;;;10.70;99.90;;;;;;5115281;27;20201;-69
2021/10/22 12:30:00;;;;;;;13.17;2.43;;;10.80;99.90;;;;;;5118756;27;20200;-69
2021/10/22 12:32:32;;;;;;;7.03;2.27;;;10.70;99.90;;;;;;5108999;27;20678;-69
2021/10/22 12:34:59;;;;;;;7.20;2.17;;;10.80;99.90;;;;;;5110490;27;20682;-69
2021/10/22 12:37:33;;;;;;;6.67;2.80;;;10.70;99.90;;;;;;5111720;27;20207;-69
2021/10/22 12:40:00;;;;;;;4.53;1.87;;;10.70;99.90;;;;;;5117588;27;20258;-69
2021/10/22 12:42:29;;;;;;;8.67;2.23;;;10.60;99.90;;;;;;5117152;27;20406;-69
2021/10/22 12:45:18;;;;;;;8.27;3.17;;;10.50;99.90;;;;;;5115623;27;20547;-69
2021/10/22 12:47:47;;;;;;;4.23;2.20;;;10.40;99.90;;;;;;5111811;27;20675;-69
2021/10/22 12:50:16;;;;;;;7.67;2.30;;;10.40;99.90;;;;;;5118377;27;20200;-69
2021/10/22 12:52:56;;;;;;;10.87;2.50;;;10.40;99.90;;;;;;5114050;27;20213;-69
2021/10/22 12:55:23;;;;;;;5.73;2.20;;;10.40;99.90;;;;;;5116806;27;20580;-69
2021/10/22 12:57:51;;;;;;;5.43;2.00;;;10.30;99.90;;;;;;5118887;27;20654;-69
2021/10/22 13:00:22;;;;;;;7.47;2.83;;;10.30;99.90;;;;;;5114819;27;20262;-69
2021/10/22 13:02:49;;;;;;;6.70;2.40;;;10.30;99.90;;;;;;5117639;27;20755;-69
2021/10/22 13:05:18;;;;;;;6.50;2.50;;;10.30;99.90;;;;;;5120560;27;20277;-69